createdAt,value
2023-01-30T00:02:34.053Z,100.00
2023-01-30T00:07:35.478Z,100.00
2023-01-30T00:12:36.932Z,100.00
2023-01-30T00:17:38.368Z,100.00
2023-01-30T00:22:44.209Z,100.00
2023-01-30T00:27:54.057Z,100.00
2023-01-30T00:32:59.699Z,100.00
2023-01-30T00:38:01.203Z,100.00
2023-01-30T00:43:21.333Z,100.00
2023-01-30T00:48:22.882Z,100.00
2023-01-30T00:53:24.561Z,100.00
2023-01-30T00:58:26.606Z,100.00
2023-01-30T01:03:28.138Z,100.00
2023-01-30T01:08:29.639Z,100.00
2023-01-30T01:13:31.323Z,100.00
2023-01-30T01:18:33.636Z,100.00
2023-01-30T01:23:35.105Z,100.00
2023-01-30T01:28:36.561Z,100.00
2023-01-30T01:33:38.208Z,100.00
2023-01-30T01:38:42.117Z,100.00
2023-01-30T01:44:05.166Z,100.00
2023-01-30T01:49:14.199Z,100.00
2023-01-30T01:54:29.642Z,100.00
2023-01-30T01:59:40.124Z,100.00
2023-01-30T02:05:04.468Z,100.00
2023-01-30T02:10:08.330Z,100.00
2023-01-30T02:15:11.004Z,100.00
2023-01-30T02:20:37.469Z,100.00
2023-01-30T02:26:07.743Z,100.00
2023-01-30T02:31:15.169Z,100.00
2023-01-30T02:37:00.296Z,100.00
2023-01-30T02:42:23.636Z,100.00
2023-01-30T02:48:01.237Z,100.00
2023-01-30T02:53:05.231Z,100.00
2023-01-30T02:58:07.293Z,100.00
2023-01-30T03:03:11.767Z,100.00
2023-01-30T03:08:28.366Z,100.00
2023-01-30T03:13:48.522Z,100.00
2023-01-30T03:18:50.268Z,100.00
2023-01-30T03:23:51.935Z,100.00
2023-01-30T03:28:53.993Z,100.00
2023-01-30T03:33:55.417Z,100.00
2023-01-30T03:38:56.916Z,100.00
2023-01-30T03:43:58.436Z,100.00
2023-01-30T03:48:59.906Z,100.00
2023-01-30T03:54:01.432Z,100.00
2023-01-30T03:59:02.871Z,100.00
2023-01-30T04:04:04.534Z,100.00
2023-01-30T04:09:06.114Z,100.00
2023-01-30T04:14:07.565Z,100.00
2023-01-30T04:19:09.057Z,100.00
2023-01-30T04:24:10.600Z,100.00
2023-01-30T04:29:12.030Z,100.00
2023-01-30T04:34:13.541Z,100.00
2023-01-30T04:39:15.036Z,100.00
2023-01-30T04:44:16.560Z,100.00
2023-01-30T04:49:18.051Z,100.00
2023-01-30T04:54:19.544Z,100.00
2023-01-30T04:59:21.053Z,100.00
2023-01-30T05:04:22.497Z,100.00
2023-01-30T05:09:24.045Z,100.00
2023-01-30T05:14:25.521Z,100.00
2023-01-30T05:19:27.002Z,100.00
2023-01-30T05:24:28.615Z,100.00
2023-01-30T05:29:30.171Z,100.00
2023-01-30T05:34:31.635Z,100.00
2023-01-30T05:39:33.308Z,100.00
2023-01-30T05:44:34.775Z,100.00
2023-01-30T05:49:36.563Z,100.00
2023-01-30T05:54:38.194Z,100.00
2023-01-30T05:59:39.678Z,100.00
2023-01-30T06:04:41.202Z,100.00
2023-01-30T06:09:42.622Z,100.00
2023-01-30T06:14:44.118Z,100.00
2023-01-30T06:19:45.567Z,100.00
2023-01-30T06:24:46.999Z,100.00
2023-01-30T06:29:48.482Z,100.00
2023-01-30T06:34:49.982Z,100.00
2023-01-30T06:39:51.423Z,100.00
2023-01-30T06:44:52.862Z,100.00
2023-01-30T06:49:54.334Z,100.00
2023-01-30T06:54:55.752Z,100.00
2023-01-30T06:59:57.163Z,100.00
2023-01-30T07:04:58.662Z,100.00
2023-01-30T07:10:07.789Z,100.00
2023-01-30T07:15:10.129Z,99.85
2023-01-30T07:20:11.868Z,99.49
2023-01-30T07:25:13.411Z,99.01
2023-01-30T07:30:14.963Z,99.43
2023-01-30T07:35:16.555Z,99.56
2023-01-30T07:40:21.658Z,99.42
2023-01-30T07:45:23.081Z,98.33
2023-01-30T07:50:24.763Z,96.84
2023-01-30T07:55:27.101Z,95.32
2023-01-30T08:00:28.630Z,94.32
2023-01-30T08:05:30.135Z,94.32
2023-01-30T08:10:31.613Z,93.38
2023-01-30T08:15:33.492Z,93.52
2023-01-30T08:20:36.202Z,93.15
2023-01-30T08:25:37.933Z,94.23
2023-01-30T08:30:41.514Z,95.46
2023-01-30T08:35:43.133Z,95.04
2023-01-30T08:40:44.888Z,96.10
2023-01-30T08:45:46.309Z,95.77
2023-01-30T08:50:47.818Z,95.09
2023-01-30T08:55:53.176Z,96.89
2023-01-30T09:00:54.657Z,96.41
2023-01-30T09:05:56.523Z,96.48
2023-01-30T09:10:59.915Z,94.59
2023-01-30T09:16:01.569Z,92.73
2023-01-30T09:21:04.567Z,92.15
2023-01-30T09:26:06.737Z,91.79
2023-01-30T09:31:08.687Z,90.79
2023-01-30T09:36:10.203Z,83.47
2023-01-30T09:41:52.810Z,83.44
2023-01-30T09:47:22.929Z,86.98
2023-01-30T09:52:42.431Z,91.90
2023-01-30T09:57:46.732Z,96.10
2023-01-30T10:03:20.215Z,99.40
2023-01-30T10:08:44.136Z,99.23
2023-01-30T10:13:59.149Z,98.30
2023-01-30T10:19:33.854Z,98.05
2023-01-30T10:25:02.400Z,96.15
2023-01-30T10:30:07.591Z,95.87
2023-01-30T10:35:22.036Z,94.38
2023-01-30T10:40:28.688Z,92.40
2023-01-30T10:45:53.490Z,93.36
2023-01-30T10:51:11.734Z,90.71
2023-01-30T10:56:24.919Z,87.00
2023-01-30T11:01:41.812Z,84.15
2023-01-30T11:06:43.563Z,87.49
2023-01-30T11:11:53.634Z,94.11
2023-01-30T11:16:57.678Z,97.36
2023-01-30T11:22:05.158Z,98.57
2023-01-30T11:27:16.729Z,94.82
2023-01-30T11:32:28.874Z,89.97
2023-01-30T11:37:36.374Z,92.65
2023-01-30T11:42:44.410Z,91.96
2023-01-30T11:47:57.967Z,91.99
2023-01-30T11:53:05.078Z,91.05
2023-01-30T11:58:09.870Z,77.75
2023-01-30T12:03:14.595Z,61.01
2023-01-30T12:08:39.427Z,55.02
2023-01-30T12:13:45.453Z,64.26
2023-01-30T12:19:06.250Z,66.00
2023-01-30T12:24:13.730Z,63.64
2023-01-30T12:29:35.998Z,60.49
2023-01-30T12:34:37.733Z,55.56
2023-01-30T12:40:15.993Z,57.11
2023-01-30T12:45:23.899Z,64.56
2023-01-30T12:50:54.298Z,71.85
2023-01-30T12:56:04.609Z,77.27
2023-01-30T13:01:25.324Z,84.52
2023-01-30T13:07:01.049Z,88.95
2023-01-30T13:12:14.135Z,91.27
2023-01-30T13:17:53.147Z,91.46
2023-01-30T13:23:01.945Z,85.44
2023-01-30T13:28:11.826Z,88.34
2023-01-30T13:33:21.025Z,91.32
2023-01-30T13:38:27.297Z,92.05
2023-01-30T13:43:35.664Z,91.26
2023-01-30T13:48:58.485Z,86.84
2023-01-30T13:54:16.800Z,84.44
2023-01-30T14:00:03.625Z,82.29
2023-01-30T14:05:05.862Z,79.24
2023-01-30T14:10:10.323Z,78.99
2023-01-30T14:15:14.837Z,75.12
2023-01-30T14:20:20.654Z,71.34
2023-01-30T14:25:35.204Z,70.62
2023-01-30T14:30:45.715Z,70.55
2023-01-30T14:36:02.393Z,74.08
2023-01-30T14:41:03.984Z,74.20
2023-01-30T14:46:19.193Z,75.40
2023-01-30T14:51:39.115Z,74.25
2023-01-30T14:56:49.764Z,74.29
2023-01-30T15:02:03.501Z,74.73
2023-01-30T15:07:29.122Z,74.05
2023-01-30T15:12:49.081Z,75.09
2023-01-30T15:18:18.797Z,75.51
2023-01-30T15:23:36.640Z,75.21
2023-01-30T15:29:24.194Z,73.84
2023-01-30T15:34:35.988Z,73.62
2023-01-30T15:39:37.442Z,71.17
2023-01-30T15:45:21.374Z,72.81
2023-01-30T15:50:23.040Z,72.01
2023-01-30T15:55:28.635Z,71.99
2023-01-30T16:00:34.576Z,72.36
2023-01-30T16:05:36.071Z,73.97
2023-01-30T16:10:45.303Z,76.73
2023-01-30T16:16:12.660Z,79.79
2023-01-30T16:21:19.627Z,80.22
2023-01-30T16:26:24.519Z,79.56
2023-01-30T16:31:31.878Z,80.19
2023-01-30T16:36:39.830Z,79.91
2023-01-30T16:41:43.166Z,79.81
2023-01-30T16:46:46.127Z,80.63
2023-01-30T16:51:49.186Z,80.85
2023-01-30T16:56:55.655Z,82.37
2023-01-30T17:01:59.074Z,82.39
2023-01-30T17:07:04.769Z,80.73
2023-01-30T17:12:29.902Z,82.07
2023-01-30T17:17:31.393Z,81.02
2023-01-30T17:22:33.404Z,79.78
2023-01-30T17:27:34.935Z,81.10
2023-01-30T17:32:36.365Z,80.78
2023-01-30T17:37:38.324Z,80.34
2023-01-30T17:42:39.857Z,80.42
2023-01-30T17:47:41.398Z,78.11
2023-01-30T17:52:42.991Z,76.08
2023-01-30T17:57:47.510Z,75.86
2023-01-30T18:02:49.198Z,75.23
2023-01-30T18:07:50.730Z,74.59
2023-01-30T18:12:52.201Z,75.35
2023-01-30T18:17:56.806Z,75.45
2023-01-30T18:22:58.147Z,76.04
2023-01-30T18:27:59.634Z,76.37
2023-01-30T18:33:01.098Z,75.49
2023-01-30T18:38:03.167Z,76.08
2023-01-30T18:43:04.799Z,76.98
2023-01-30T18:48:06.447Z,77.18
2023-01-30T18:53:09.151Z,77.32
2023-01-30T18:58:10.671Z,76.62
2023-01-30T19:03:12.139Z,77.27
2023-01-30T19:08:13.610Z,77.20
2023-01-30T19:13:33.097Z,76.78
2023-01-30T19:18:34.537Z,78.10
2023-01-30T19:23:36.101Z,78.79
2023-01-30T19:28:38.171Z,79.29
2023-01-30T19:33:40.600Z,80.15
2023-01-30T19:38:43.055Z,80.13
2023-01-30T19:43:44.526Z,81.21
2023-01-30T19:48:56.432Z,83.17
2023-01-30T19:54:00.245Z,84.61
2023-01-30T19:59:02.284Z,85.28
2023-01-30T20:04:04.127Z,87.15
2023-01-30T20:09:09.758Z,88.94
2023-01-30T20:14:11.628Z,89.09
2023-01-30T20:19:15.442Z,88.77
2023-01-30T20:24:17.096Z,88.26
2023-01-30T20:29:18.818Z,88.74
2023-01-30T20:34:20.642Z,88.45
2023-01-30T20:39:22.179Z,88.18
2023-01-30T20:44:24.368Z,88.06
2023-01-30T20:49:26.355Z,89.56
2023-01-30T20:54:28.294Z,90.86
2023-01-30T20:59:29.958Z,91.61
2023-01-30T21:04:31.441Z,93.80
2023-01-30T21:09:32.940Z,96.54
2023-01-30T21:14:34.359Z,97.36
2023-01-30T21:19:38.151Z,97.58
2023-01-30T21:24:43.137Z,97.80
2023-01-30T21:29:44.603Z,96.53
2023-01-30T21:34:46.118Z,96.33
2023-01-30T21:40:06.012Z,96.54
2023-01-30T21:45:08.138Z,97.35
2023-01-30T21:50:10.832Z,97.60
2023-01-30T21:55:12.313Z,97.82
2023-01-30T22:00:14.480Z,97.90
2023-01-30T22:05:16.021Z,97.09
2023-01-30T22:10:17.569Z,96.39
2023-01-30T22:15:21.638Z,95.40
2023-01-30T22:20:23.400Z,95.24
2023-01-30T22:25:24.822Z,93.33
2023-01-30T22:30:26.241Z,91.32
2023-01-30T22:35:28.878Z,91.84
2023-01-30T22:40:30.411Z,92.52
2023-01-30T22:45:34.719Z,92.90
2023-01-30T22:50:36.170Z,92.60
2023-01-30T22:55:38.505Z,92.32
2023-01-30T23:00:40.322Z,92.73
2023-01-30T23:05:42.822Z,91.03
2023-01-30T23:10:44.366Z,90.12
2023-01-30T23:15:46.838Z,89.26
2023-01-30T23:20:48.270Z,89.30
2023-01-30T23:25:49.742Z,89.69
2023-01-30T23:30:51.257Z,89.80
2023-01-30T23:35:52.761Z,90.55
2023-01-30T23:40:54.209Z,90.53
2023-01-30T23:45:56.273Z,90.45
2023-01-30T23:51:01.863Z,91.17
2023-01-30T23:56:04.164Z,92.34
